KGS weather

Kos Airport
Kos Island, Dodecanese, Greece

Public forecast

Using degrees Celsius for public forecast. Weather courtesy of forecast.io.

METAR (pilot weather report)

Retrieved 2019/05/19 07:20 UTC (30 minutes ago):

LGKO 190720Z 15006KT CAVOK 22/16 Q1012

TAF (pilot weather forecast)

Retrieved 2019/05/19 06:16 UTC (2 hours ago):

TAF LGKO 190500Z 1906/2006 07005KT 9999 FEW015 BECMG 1907/1909 17010KT TEMPO 1915/1921 18010G20KT BECMG 1921/1923 17015G25KT